Time;durP1;ratioP1;P1;durP2;ratioP2;P2;SDS_P1;SDS_P2;PMS_P1;PMS_P2;Temp;Humidity;BMP_temperature;BMP_pressure;BME280_temperature;BME280_humidity;BME280_pressure;Samples;Min_cycle;Max_cycle;Signal;HPM_P1;HPM_P2
2022/05/16 00:01:26;;;;;;;6.28;2.15;;;24.50;41.10;;;;;;6285204;27;80582;-68
2022/05/16 00:04:27;;;;;;;10.27;2.45;;;24.50;41.10;;;;;;6260886;27;80883;-68
2022/05/16 00:07:28;;;;;;;2.67;2.00;;;24.50;41.30;;;;;;6284731;27;80431;-69
2022/05/16 00:10:28;;;;;;;5.07;2.72;;;24.50;41.20;;;;;;6284889;27;80797;-68
2022/05/16 00:13:29;;;;;;;3.03;1.90;;;24.50;41.20;;;;;;6284731;27;80181;-68
2022/05/16 00:16:29;;;;;;;3.42;1.98;;;24.40;41.10;;;;;;6284356;27;80566;-67
2022/05/16 00:19:30;;;;;;;2.80;2.45;;;24.40;41.20;;;;;;6282734;27;81695;-68
2022/05/16 00:22:30;;;;;;;4.55;2.05;;;24.40;41.10;;;;;;6284528;27;80552;-68
2022/05/16 00:25:31;;;;;;;4.22;2.10;;;24.40;41.20;;;;;;6284583;27;81633;-68
2022/05/16 00:28:31;;;;;;;3.47;1.95;;;24.40;41.20;;;;;;6283913;27;80741;-69
2022/05/16 00:31:32;;;;;;;3.80;2.22;;;24.40;41.20;;;;;;6283607;27;81390;-68
2022/05/16 00:34:32;;;;;;;3.38;1.85;;;24.40;41.20;;;;;;6283649;27;80768;-68
2022/05/16 00:37:34;;;;;;;2.85;1.98;;;24.40;41.20;;;;;;6283855;27;80663;-69
2022/05/16 00:40:34;;;;;;;2.92;1.85;;;24.40;41.20;;;;;;6282415;27;87190;-68
2022/05/16 00:43:35;;;;;;;6.00;2.20;;;24.40;41.20;;;;;;6284024;27;81050;-68
2022/05/16 00:46:35;;;;;;;4.05;2.53;;;24.40;41.20;;;;;;6273645;27;80862;-68
2022/05/16 00:49:36;;;;;;;6.65;2.70;;;24.40;41.30;;;;;;6283614;27;81728;-68
2022/05/16 00:52:38;;;;;;;5.07;2.38;;;24.40;41.30;;;;;;6283320;27;80305;-68
2022/05/16 00:55:38;;;;;;;4.22;2.10;;;24.40;41.20;;;;;;6283035;27;82118;-67
2022/05/16 00:58:39;;;;;;;8.27;2.33;;;24.40;41.30;;;;;;6283386;27;81010;-68
2022/05/16 01:04:59;;;;;;;2.35;1.90;;;24.40;41.30;;;;;;6283410;27;81000;-68
2022/05/16 01:08:00;;;;;;;3.72;2.03;;;24.40;41.30;;;;;;6281981;27;80935;-69
2022/05/16 01:11:00;;;;;;;2.80;2.05;;;24.40;41.30;;;;;;6283376;27;80963;-69
2022/05/16 01:14:01;;;;;;;6.05;2.60;;;24.40;41.30;;;;;;6282635;27;80549;-68
2022/05/16 01:17:01;;;;;;;5.38;2.22;;;24.30;41.20;;;;;;6283065;27;81310;-68
2022/05/16 01:20:02;;;;;;;5.20;2.47;;;24.40;41.30;;;;;;6281648;27;82127;-67
2022/05/16 01:23:03;;;;;;;4.78;2.47;;;24.40;41.30;;;;;;6283150;27;80476;-68
2022/05/16 01:26:03;;;;;;;5.32;2.67;;;24.40;41.30;;;;;;6282817;27;81614;-68
2022/05/16 01:29:04;;;;;;;2.83;2.08;;;24.40;41.30;;;;;;6282784;27;81865;-68
2022/05/16 01:32:04;;;;;;;2.75;2.17;;;24.40;41.40;;;;;;6282468;27;80299;-68
2022/05/16 01:35:05;;;;;;;5.35;1.98;;;24.30;41.40;;;;;;6282506;27;87596;-68
2022/05/16 01:38:26;;;;;;;4.13;2.85;;;24.30;41.30;;;;;;6275508;27;80988;-68
2022/05/16 01:41:26;;;;;;;4.95;2.30;;;24.30;41.40;;;;;;6279925;27;85913;-68
2022/05/16 01:44:27;;;;;;;5.07;2.55;;;24.30;41.40;;;;;;6281107;27;81782;-67
2022/05/16 01:47:27;;;;;;;3.50;2.50;;;24.30;41.30;;;;;;6280425;27;83792;-67
2022/05/16 01:50:27;;;;;;;7.75;2.80;;;24.30;41.30;;;;;;6283211;27;80438;-67
2022/05/16 01:53:28;;;;;;;4.32;2.45;;;24.30;41.30;;;;;;6282629;27;81237;-68
2022/05/16 01:56:29;;;;;;;8.48;3.45;;;24.30;41.30;;;;;;6283054;27;80722;-68
2022/05/16 01:59:29;;;;;;;4.43;2.80;;;24.30;41.30;;;;;;6282767;27;80452;-69
2022/05/16 02:02:30;;;;;;;6.70;2.78;;;24.30;41.30;;;;;;6282902;27;80534;-67
2022/05/16 02:05:30;;;;;;;4.57;2.95;;;24.30;41.40;;;;;;6282437;27;86459;-68
2022/05/16 02:08:31;;;;;;;4.05;2.70;;;24.30;41.40;;;;;;6282866;27;80400;-68
2022/05/16 02:11:31;;;;;;;4.93;2.63;;;24.30;41.40;;;;;;6282847;27;80555;-68
2022/05/16 02:14:32;;;;;;;6.13;2.47;;;24.30;41.40;;;;;;6280679;27;81185;-68
2022/05/16 02:17:33;;;;;;;4.43;2.58;;;24.30;41.40;;;;;;6282706;27;80611;-68
2022/05/16 02:20:34;;;;;;;7.18;3.40;;;24.30;41.40;;;;;;6282287;27;80740;-68
2022/05/16 02:26:53;;;;;;;5.20;2.65;;;24.20;41.40;;;;;;6282613;27;80784;-68
2022/05/16 02:29:54;;;;;;;3.72;2.40;;;24.30;41.30;;;;;;6282230;27;80429;-68
2022/05/16 02:32:55;;;;;;;5.85;2.58;;;24.30;41.40;;;;;;6282433;27;80693;-68
2022/05/16 02:35:56;;;;;;;4.53;2.40;;;24.20;41.40;;;;;;6282153;27;80121;-68
2022/05/16 02:38:56;;;;;;;7.72;3.17;;;24.30;41.40;;;;;;6281177;27;80787;-68
2022/05/16 02:41:57;;;;;;;6.22;2.83;;;24.20;41.30;;;;;;6282051;27;80349;-69
2022/05/16 02:44:57;;;;;;;5.80;2.47;;;24.20;41.30;;;;;;6282504;27;80400;-68
2022/05/16 02:47:58;;;;;;;5.60;2.65;;;24.30;41.40;;;;;;6281853;27;81569;-67
2022/05/16 02:50:58;;;;;;;4.20;2.60;;;24.30;41.40;;;;;;6281771;27;80317;-69
2022/05/16 02:53:59;;;;;;;5.30;2.80;;;24.30;41.40;;;;;;6281684;27;80553;-69
2022/05/16 02:56:59;;;;;;;5.43;3.00;;;24.30;41.40;;;;;;6283230;27;80369;-68
2022/05/16 03:00:00;;;;;;;6.22;2.78;;;24.30;41.40;;;;;;6285835;27;80320;-69
2022/05/16 03:03:00;;;;;;;5.60;2.80;;;24.30;41.40;;;;;;6284606;27;80505;-67
2022/05/16 03:06:01;;;;;;;6.07;3.13;;;24.30;41.40;;;;;;6271154;27;80337;-66
2022/05/16 03:09:01;;;;;;;4.45;2.80;;;24.30;41.30;;;;;;6285678;27;80592;-67
2022/05/16 03:12:03;;;;;;;5.78;2.88;;;24.20;41.40;;;;;;6272301;27;80236;-67
2022/05/16 03:15:04;;;;;;;5.45;2.83;;;24.30;41.50;;;;;;6268152;27;80826;-67
2022/05/16 03:18:04;;;;;;;3.55;2.45;;;24.20;41.60;;;;;;6281912;27;81062;-67
2022/05/16 03:21:05;;;;;;;5.38;2.95;;;24.20;41.60;;;;;;6264711;27;80373;-67
2022/05/16 03:24:05;;;;;;;5.82;3.05;;;24.20;41.60;;;;;;6278457;27;80970;-64
2022/05/16 03:27:06;;;;;;;5.95;2.97;;;24.30;41.80;;;;;;6285616;27;80517;-65
2022/05/16 03:30:07;;;;;;;3.78;2.80;;;24.30;41.90;;;;;;6285051;27;81516;-65
2022/05/16 03:33:08;;;;;;;3.92;2.60;;;24.30;41.90;;;;;;6275373;27;80457;-64
2022/05/16 03:36:08;;;;;;;4.47;2.45;;;24.30;41.90;;;;;;6278846;27;80034;-68
2022/05/16 03:42:28;;;;;;;8.82;3.13;;;24.30;42.10;;;;;;6284879;27;80443;-68
2022/05/16 03:45:28;;;;;;;8.45;3.20;;;24.30;42.20;;;;;;6284868;27;80685;-72
2022/05/16 03:48:29;;;;;;;6.45;2.50;;;24.40;42.10;;;;;;6264850;27;80415;-64
2022/05/16 03:51:30;;;;;;;12.20;3.05;;;24.40;42.20;;;;;;6263777;27;81576;-67
2022/05/16 03:54:30;;;;;;;9.25;3.20;;;24.40;42.10;;;;;;6277712;27;80768;-66
2022/05/16 03:57:32;;;;;;;6.05;2.72;;;24.40;42.50;;;;;;6279533;27;81304;-65
2022/05/16 04:00:32;;;;;;;8.18;3.13;;;24.50;42.40;;;;;;6279005;27;81447;-65
2022/05/16 04:03:33;;;;;;;5.32;2.70;;;24.50;42.40;;;;;;6281627;27;81023;-66
2022/05/16 04:06:34;;;;;;;5.57;2.35;;;24.50;42.40;;;;;;6277579;27;80382;-67
2022/05/16 04:09:35;;;;;;;3.42;2.40;;;24.50;42.60;;;;;;6283318;27;82498;-66
2022/05/16 04:12:35;;;;;;;4.50;2.90;;;24.60;42.80;;;;;;6284426;27;80559;-66
2022/05/16 04:15:37;;;;;;;7.88;2.30;;;24.60;43.00;;;;;;6283384;27;81539;-66
2022/05/16 04:18:37;;;;;;;3.50;2.13;;;24.60;42.70;;;;;;6284324;27;81660;-66
2022/05/16 04:21:38;;;;;;;8.50;2.88;;;24.70;42.70;;;;;;6284653;27;80958;-65
2022/05/16 04:24:38;;;;;;;5.65;2.72;;;24.70;42.90;;;;;;6280902;27;80927;-66
2022/05/16 04:27:39;;;;;;;5.80;2.47;;;24.70;43.00;;;;;;6271813;27;80953;-66
2022/05/16 04:30:39;;;;;;;11.00;3.08;;;24.70;43.00;;;;;;6283619;27;80378;-66
2022/05/16 04:33:40;;;;;;;6.78;3.17;;;24.70;43.10;;;;;;6284568;27;80370;-66
2022/05/16 04:36:41;;;;;;;4.95;3.15;;;24.70;43.20;;;;;;6279995;27;80914;-65
2022/05/16 04:39:41;;;;;;;4.53;2.50;;;24.80;43.20;;;;;;6284933;27;80442;-66
2022/05/16 04:42:42;;;;;;;8.38;3.28;;;24.70;43.20;;;;;;6283636;27;80625;-65
2022/05/16 04:45:43;;;;;;;5.63;3.03;;;24.70;43.20;;;;;;6284381;27;80121;-67
2022/05/16 04:48:43;;;;;;;4.95;2.65;;;24.80;43.20;;;;;;6284061;27;80865;-66
2022/05/16 04:51:44;;;;;;;7.63;3.67;;;24.80;43.20;;;;;;6284147;27;80597;-66
2022/05/16 04:54:48;;;;;;;7.30;3.08;;;24.90;43.40;;;;;;6283946;27;80467;-65
2022/05/16 04:57:49;;;;;;;6.40;3.30;;;24.90;43.50;;;;;;6284078;27;80310;-70
2022/05/16 05:00:50;;;;;;;7.10;3.20;;;24.80;43.40;;;;;;6281361;27;80118;-64
2022/05/16 05:03:50;;;;;;;10.52;3.40;;;24.90;43.50;;;;;;6261836;27;81338;-65
2022/05/16 05:06:51;;;;;;;5.60;3.38;;;24.80;43.40;;;;;;6276502;27;81837;-77
2022/05/16 05:16:30;;;;;;;7.07;3.03;;;24.80;42.80;;;;;;6272861;27;80453;-65
2022/05/16 05:19:30;;;;;;;11.05;3.85;;;24.80;42.70;;;;;;6282899;27;80446;-64
2022/05/16 05:22:31;;;;;;;7.55;3.72;;;24.80;42.40;;;;;;6283107;27;80637;-64
2022/05/16 05:25:32;;;;;;;9.80;3.47;;;24.70;42.10;;;;;;6283131;27;80935;-64
2022/05/16 05:28:33;;;;;;;7.95;3.65;;;24.70;42.10;;;;;;6283120;27;81249;-65
2022/05/16 05:31:33;;;;;;;6.85;3.65;;;24.60;42.00;;;;;;6259110;27;80523;-65
2022/05/16 05:34:37;;;;;;;7.45;2.97;;;24.60;41.90;;;;;;6282400;27;81488;-64
2022/05/16 05:37:37;;;;;;;9.68;3.90;;;24.50;41.80;;;;;;6282930;27;80942;-66
2022/05/16 05:40:38;;;;;;;5.05;2.92;;;24.50;42.40;;;;;;6283145;27;80286;-64
2022/05/16 05:43:38;;;;;;;6.95;3.63;;;24.50;41.80;;;;;;6283091;27;80265;-65
2022/05/16 05:46:39;;;;;;;4.75;3.08;;;24.40;41.80;;;;;;6282696;27;80941;-64
2022/05/16 05:49:40;;;;;;;7.78;2.92;;;24.50;41.80;;;;;;6282308;27;80071;-65
2022/05/16 05:52:41;;;;;;;7.95;3.08;;;24.40;41.70;;;;;;6280924;27;83182;-61
2022/05/16 05:55:41;;;;;;;7.00;3.45;;;24.40;41.60;;;;;;6282486;27;81885;-63
2022/05/16 05:58:42;;;;;;;4.80;2.83;;;24.40;41.50;;;;;;6282626;27;80987;-63
2022/05/16 06:01:43;;;;;;;6.35;2.88;;;24.40;41.50;;;;;;6282163;27;81541;-63
2022/05/16 06:04:43;;;;;;;4.63;2.33;;;24.40;41.50;;;;;;6282062;27;80238;-63
2022/05/16 06:07:44;;;;;;;9.35;3.15;;;24.40;41.50;;;;;;6273733;27;81381;-62
2022/05/16 06:10:44;;;;;;;7.47;2.70;;;24.40;41.30;;;;;;6267573;27;80458;-62
2022/05/16 06:13:45;;;;;;;9.50;3.20;;;24.40;41.40;;;;;;6277066;27;81475;-62
2022/05/16 06:16:45;;;;;;;7.13;2.78;;;24.40;41.30;;;;;;6269620;27;83168;-62
2022/05/16 06:19:46;;;;;;;13.27;3.22;;;24.40;41.30;;;;;;6272532;27;80393;-63
2022/05/16 06:22:46;;;;;;;7.65;2.85;;;24.40;41.30;;;;;;6262758;27;80552;-62
2022/05/16 06:25:47;;;;;;;4.00;2.75;;;24.30;41.60;;;;;;6258224;27;81282;-62
2022/05/16 06:28:48;;;;;;;4.43;3.13;;;24.40;41.70;;;;;;6270705;27;80404;-63
2022/05/16 06:31:48;;;;;;;6.75;3.20;;;24.40;42.00;;;;;;6270811;27;80389;-62
2022/05/16 06:34:49;;;;;;;8.15;3.40;;;24.50;41.90;;;;;;6262208;27;80381;-62
2022/05/16 06:37:50;;;;;;;5.55;3.67;;;24.50;42.30;;;;;;6283071;27;80525;-62
2022/05/16 06:40:50;;;;;;;7.82;4.07;;;24.50;42.20;;;;;;6280623;27;80788;-63
2022/05/16 06:43:51;;;;;;;9.15;4.10;;;24.50;42.60;;;;;;6286023;27;80385;-62
2022/05/16 06:46:51;;;;;;;11.45;4.93;;;24.50;42.60;;;;;;6285267;27;80280;-62
2022/05/16 06:49:52;;;;;;;11.75;3.97;;;24.40;42.60;;;;;;6286447;27;80536;-62
2022/05/16 06:52:52;;;;;;;8.93;4.13;;;24.40;42.30;;;;;;6286841;27;80459;-63
2022/05/16 06:55:53;;;;;;;9.77;4.35;;;24.40;42.10;;;;;;6280907;27;80660;-63
2022/05/16 06:58:53;;;;;;;11.10;3.95;;;24.40;41.90;;;;;;6286876;27;80307;-65
2022/05/16 07:01:54;;;;;;;10.93;4.32;;;24.40;41.90;;;;;;6286849;27;80655;-65
2022/05/16 07:04:54;;;;;;;6.45;3.30;;;24.40;41.90;;;;;;6285603;27;80926;-65
2022/05/16 07:07:57;;;;;;;7.30;4.05;;;24.50;41.90;;;;;;6284184;27;80291;-68
2022/05/16 07:10:57;;;;;;;7.85;3.85;;;24.60;41.50;;;;;;6287075;27;80750;-68
2022/05/16 07:13:58;;;;;;;9.25;4.13;;;24.60;41.40;;;;;;6278401;27;81096;-65
2022/05/16 07:16:58;;;;;;;8.07;3.90;;;24.60;41.30;;;;;;6286836;27;80221;-63
2022/05/16 07:19:59;;;;;;;7.90;3.83;;;24.60;41.30;;;;;;6285897;27;81961;-64
2022/05/16 07:23:00;;;;;;;8.13;3.60;;;24.50;40.80;;;;;;6279867;27;80252;-64
2022/05/16 07:29:19;;;;;;;8.13;3.00;;;24.10;40.10;;;;;;6265139;27;80662;-65
2022/05/16 07:32:20;;;;;;;7.05;3.28;;;24.10;40.60;;;;;;6266351;27;80160;-65
2022/05/16 07:35:22;;;;;;;6.38;3.88;;;24.00;40.60;;;;;;6268213;27;81503;-64
2022/05/16 07:38:23;;;;;;;7.90;3.40;;;24.10;40.80;;;;;;6266857;27;80456;-65
2022/05/16 07:41:23;;;;;;;7.13;3.50;;;24.30;40.70;;;;;;6265307;27;81294;-65
2022/05/16 07:44:24;;;;;;;9.65;4.13;;;24.40;40.40;;;;;;6281115;27;80410;-68
2022/05/16 07:47:24;;;;;;;12.27;5.10;;;24.40;40.70;;;;;;6284895;27;80354;-68
2022/05/16 07:50:25;;;;;;;18.58;4.88;;;24.40;40.90;;;;;;6274911;27;80531;-64
2022/05/16 07:53:25;;;;;;;13.23;4.22;;;24.40;40.90;;;;;;6286289;27;80365;-68
2022/05/16 07:56:26;;;;;;;12.00;4.57;;;24.40;40.90;;;;;;6286193;27;81266;-64
2022/05/16 07:59:26;;;;;;;18.00;4.03;;;24.50;40.60;;;;;;6285112;27;80466;-64
2022/05/16 08:02:27;;;;;;;7.72;3.53;;;24.50;40.60;;;;;;6285199;27;80825;-64
2022/05/16 08:05:27;;;;;;;13.68;3.03;;;24.60;40.50;;;;;;6284899;27;87357;-65
2022/05/16 08:11:47;;;;;;;10.88;3.00;;;24.60;40.20;;;;;;6285558;27;80845;-63
2022/05/16 08:14:48;;;;;;;7.90;2.88;;;24.60;39.80;;;;;;6276209;27;81469;-64
2022/05/16 08:17:48;;;;;;;6.45;2.75;;;24.60;39.10;;;;;;6285454;27;81262;-63
2022/05/16 08:20:50;;;;;;;8.90;3.00;;;24.40;38.70;;;;;;6285081;27;81616;-64
2022/05/16 08:23:51;;;;;;;8.30;2.55;;;24.10;38.40;;;;;;6284462;27;80572;-63
2022/05/16 08:26:52;;;;;;;6.20;2.22;;;24.30;38.60;;;;;;6285817;27;80786;-66
2022/05/16 08:29:52;;;;;;;14.68;2.53;;;24.30;38.10;;;;;;6272301;27;80417;-63
2022/05/16 08:32:53;;;;;;;3.75;1.77;;;24.10;36.50;;;;;;6283351;27;80314;-70
2022/05/16 08:42:32;;;;;;;5.20;2.53;;;23.80;36.40;;;;;;6271298;27;80868;-63
2022/05/16 08:45:32;;;;;;;5.28;1.77;;;23.60;37.10;;;;;;6269076;27;81507;-64
2022/05/16 08:48:33;;;;;;;7.65;1.75;;;23.40;36.30;;;;;;6284967;27;80563;-62
2022/05/16 08:51:34;;;;;;;16.85;4.22;;;23.40;36.70;;;;;;6283228;27;80452;-66
2022/05/16 08:54:34;;;;;;;4.35;2.00;;;23.40;36.90;;;;;;6283999;27;80549;-64
2022/05/16 08:57:35;;;;;;;11.65;2.97;;;23.40;37.00;;;;;;6276166;27;83095;-64
2022/05/16 09:00:36;;;;;;;7.88;2.08;;;23.50;37.60;;;;;;6279730;27;80085;-64
2022/05/16 09:03:36;;;;;;;7.57;2.58;;;23.90;37.70;;;;;;6284771;27;81142;-64
2022/05/16 09:06:36;;;;;;;2.70;1.73;;;24.10;37.70;;;;;;6284349;27;81530;-63
2022/05/16 09:09:37;;;;;;;2.97;1.55;;;24.20;36.30;;;;;;6283550;27;80571;-64
2022/05/16 09:12:38;;;;;;;2.60;1.48;;;24.20;36.00;;;;;;6276809;27;80552;-63
2022/05/16 09:15:38;;;;;;;9.52;2.22;;;24.30;37.30;;;;;;6284483;27;80427;-63
2022/05/16 09:18:39;;;;;;;4.85;2.20;;;24.40;36.10;;;;;;6284325;27;79955;-63
2022/05/16 09:21:39;;;;;;;4.40;1.75;;;24.40;36.10;;;;;;6284177;27;80316;-63
2022/05/16 09:24:40;;;;;;;4.60;1.60;;;24.50;36.50;;;;;;6284438;27;80866;-64
2022/05/16 09:31:04;;;;;;;10.13;2.17;;;24.40;35.50;;;;;;6272187;27;80990;-64
2022/05/16 09:34:05;;;;;;;4.63;1.83;;;24.40;35.30;;;;;;6270112;27;81890;-65
2022/05/16 09:37:06;;;;;;;4.57;2.30;;;24.60;35.60;;;;;;6266780;27;81867;-65
2022/05/16 09:40:07;;;;;;;6.50;2.25;;;24.60;36.00;;;;;;6261580;27;80394;-64
2022/05/16 09:43:08;;;;;;;4.00;1.70;;;24.50;35.60;;;;;;6272301;27;81078;-65
2022/05/16 09:46:09;;;;;;;5.65;2.03;;;24.50;36.50;;;;;;6271924;27;81545;-65
2022/05/16 09:49:12;;;;;;;2.95;1.38;;;24.60;36.30;;;;;;6272658;27;80556;-65
2022/05/16 09:52:12;;;;;;;6.07;2.03;;;24.70;36.50;;;;;;6266881;27;81527;-65
2022/05/16 09:55:13;;;;;;;6.45;1.80;;;24.70;36.70;;;;;;6269737;27;81902;-65
2022/05/16 09:58:13;;;;;;;6.07;1.80;;;24.70;36.50;;;;;;6274577;27;80348;-65
2022/05/16 10:01:14;;;;;;;3.00;1.90;;;24.70;35.90;;;;;;6266660;27;80188;-65
2022/05/16 10:04:14;;;;;;;7.70;1.80;;;24.60;35.30;;;;;;6264597;27;80544;-65
2022/05/16 10:07:15;;;;;;;8.73;1.98;;;24.40;35.20;;;;;;6267500;27;81382;-66
2022/05/16 10:10:16;;;;;;;5.07;1.50;;;24.60;36.00;;;;;;6268497;27;80618;-66
2022/05/16 10:13:16;;;;;;;4.72;2.10;;;24.70;35.90;;;;;;6287566;27;80373;-66
2022/05/16 10:16:17;;;;;;;4.20;1.67;;;24.60;35.50;;;;;;6284819;27;80555;-66
2022/05/16 10:19:18;;;;;;;4.82;1.83;;;24.50;35.30;;;;;;6279511;27;81397;-65
2022/05/16 10:22:20;;;;;;;4.30;2.00;;;24.60;35.60;;;;;;6284186;27;80565;-65
2022/05/16 10:25:20;;;;;;;7.40;1.80;;;24.50;36.00;;;;;;6276822;27;80879;-65
2022/05/16 10:28:21;;;;;;;3.85;1.98;;;24.60;35.80;;;;;;6273855;27;80440;-66
2022/05/16 10:34:41;;;;;;;5.72;1.67;;;24.70;36.70;;;;;;6277274;27;81424;-64
2022/05/16 10:37:41;;;;;;;6.03;2.10;;;24.80;36.10;;;;;;6284259;27;82319;-64
2022/05/16 10:40:42;;;;;;;3.28;1.70;;;24.70;35.50;;;;;;6267043;27;80746;-64
2022/05/16 10:43:42;;;;;;;3.45;1.73;;;24.70;35.60;;;;;;6275416;27;80526;-64
2022/05/16 10:46:44;;;;;;;3.25;1.70;;;24.60;35.50;;;;;;6279725;27;80834;-66
2022/05/16 10:49:44;;;;;;;5.20;1.80;;;24.60;35.70;;;;;;6268061;27;80997;-65
2022/05/16 10:52:45;;;;;;;5.13;1.98;;;24.70;36.00;;;;;;6287240;27;80284;-66
2022/05/16 10:55:45;;;;;;;4.20;1.83;;;24.70;35.80;;;;;;6282704;27;80806;-70
2022/05/16 10:58:46;;;;;;;35.60;10.68;;;24.70;36.20;;;;;;6268460;27;80893;-69
2022/05/16 11:01:48;;;;;;;88.32;29.75;;;24.70;36.00;;;;;;6268950;27;83076;-69
2022/05/16 11:04:48;;;;;;;73.07;28.33;;;24.70;36.10;;;;;;6272696;27;89954;-67
2022/05/16 11:07:50;;;;;;;52.40;21.52;;;24.60;35.70;;;;;;6284115;27;82981;-68
2022/05/16 11:10:51;;;;;;;63.47;26.33;;;24.50;35.80;;;;;;6284083;27;84070;-69
2022/05/16 11:13:52;;;;;;;60.50;25.35;;;24.50;35.80;;;;;;6283405;27;83302;-69
2022/05/16 11:16:52;;;;;;;65.63;24.92;;;24.50;36.00;;;;;;6283420;27;82688;-69
2022/05/16 11:19:53;;;;;;;61.15;27.40;;;24.60;36.70;;;;;;6283804;27;83616;-69
2022/05/16 11:22:53;;;;;;;31.58;15.13;;;24.60;36.10;;;;;;6283448;27;83571;-69
2022/05/16 11:25:54;;;;;;;27.20;11.38;;;24.60;36.00;;;;;;6282991;27;90154;-71
2022/05/16 11:32:34;;;;;;;13.13;5.30;;;24.60;35.90;;;;;;6273619;27;87370;-64
2022/05/16 11:35:34;;;;;;;8.70;3.60;;;24.60;36.00;;;;;;6286629;27;80923;-65
2022/05/16 11:38:37;;;;;;;10.73;3.13;;;24.70;36.20;;;;;;6270949;27;80815;-66
2022/05/16 11:41:37;;;;;;;6.43;1.95;;;24.80;35.90;;;;;;6277045;27;80699;-66
2022/05/16 11:44:38;;;;;;;5.68;2.00;;;24.90;35.70;;;;;;6285325;27;80099;-66
2022/05/16 11:47:39;;;;;;;4.95;2.00;;;24.90;36.10;;;;;;6286041;27;80181;-65
2022/05/16 11:50:39;;;;;;;5.50;2.13;;;24.90;36.10;;;;;;6286274;27;80421;-65
2022/05/16 11:53:40;;;;;;;6.13;2.58;;;24.90;36.20;;;;;;6281542;27;80513;-65
2022/05/16 12:03:19;;;;;;;10.88;2.15;;;25.10;35.90;;;;;;6286381;27;80330;-67
2022/05/16 12:06:20;;;;;;;6.07;2.17;;;25.10;36.20;;;;;;6286236;27;80303;-67
2022/05/16 12:09:20;;;;;;;4.07;2.20;;;25.00;36.00;;;;;;6285792;27;80383;-67
2022/05/16 12:12:21;;;;;;;4.07;1.85;;;25.10;35.90;;;;;;6285978;27;80495;-67
2022/05/16 12:15:21;;;;;;;3.10;2.03;;;25.00;35.70;;;;;;6285724;27;80355;-66
2022/05/16 12:18:22;;;;;;;7.60;2.13;;;25.00;35.90;;;;;;6284159;27;83484;-66
2022/05/16 12:21:23;;;;;;;4.93;2.22;;;25.00;35.40;;;;;;6285435;27;80559;-67
2022/05/16 12:24:24;;;;;;;3.33;1.67;;;24.90;35.20;;;;;;6283887;27;81822;-66
2022/05/16 12:27:25;;;;;;;5.20;2.08;;;24.90;35.40;;;;;;6285491;27;80005;-67
2022/05/16 12:30:26;;;;;;;12.98;1.83;;;24.90;35.10;;;;;;6285233;27;80354;-68
2022/05/16 12:33:26;;;;;;;5.03;1.92;;;24.80;34.80;;;;;;6269089;27;82071;-66
2022/05/16 12:36:27;;;;;;;2.85;1.92;;;24.70;35.00;;;;;;6271674;27;80846;-67
2022/05/16 12:39:28;;;;;;;6.57;1.95;;;24.70;35.20;;;;;;6274694;27;81845;-67
2022/05/16 12:42:28;;;;;;;7.35;2.30;;;24.80;36.10;;;;;;6267176;27;84347;-67
2022/05/16 12:45:29;;;;;;;4.90;2.33;;;25.00;36.10;;;;;;6274551;27;80395;-67
2022/05/16 12:48:32;;;;;;;3.97;2.13;;;25.10;36.00;;;;;;6264189;27;80505;-66
2022/05/16 12:51:33;;;;;;;8.73;2.47;;;25.10;36.20;;;;;;6268547;27;81884;-65
2022/05/16 12:54:33;;;;;;;3.92;2.00;;;25.10;36.80;;;;;;6279273;27;81078;-66
2022/05/16 12:57:37;;;;;;;6.03;2.17;;;25.10;35.90;;;;;;6282770;27;81067;-64
2022/05/16 13:00:38;;;;;;;5.30;2.08;;;25.00;35.70;;;;;;6285067;27;80608;-65
2022/05/16 13:03:38;;;;;;;5.28;2.20;;;25.10;36.30;;;;;;6282957;27;81711;-66
2022/05/16 13:06:39;;;;;;;8.65;2.50;;;25.00;35.80;;;;;;6284223;27;80350;-66
2022/05/16 13:09:39;;;;;;;5.00;2.00;;;24.90;36.00;;;;;;6283780;27;80621;-65
2022/05/16 13:12:40;;;;;;;7.43;2.40;;;24.90;36.00;;;;;;6284804;27;80450;-67
2022/05/16 13:15:40;;;;;;;10.48;1.92;;;25.00;36.20;;;;;;6280441;27;80674;-67
2022/05/16 13:18:41;;;;;;;4.00;2.28;;;25.00;36.80;;;;;;6267804;27;80375;-65
2022/05/16 13:21:42;;;;;;;4.38;1.83;;;25.10;36.10;;;;;;6283726;27;81441;-64
2022/05/16 13:24:42;;;;;;;10.43;2.65;;;25.00;35.70;;;;;;6283634;27;80279;-65
2022/05/16 13:31:02;;;;;;;7.43;2.65;;;25.10;36.20;;;;;;6284228;27;80407;-65
2022/05/16 13:34:03;;;;;;;4.70;2.42;;;25.10;36.10;;;;;;6284123;27;80433;-65
2022/05/16 13:37:03;;;;;;;4.00;2.42;;;25.20;36.10;;;;;;6284067;27;80720;-65
2022/05/16 13:40:06;;;;;;;7.03;1.88;;;25.10;36.20;;;;;;6273145;27;80227;-65
2022/05/16 13:43:07;;;;;;;4.05;2.08;;;25.00;35.80;;;;;;6270840;27;80389;-65
2022/05/16 13:46:08;;;;;;;4.60;2.22;;;25.10;36.40;;;;;;6283809;27;80371;-65
2022/05/16 13:49:08;;;;;;;3.97;2.28;;;25.10;36.30;;;;;;6282431;27;80509;-66
2022/05/16 13:52:09;;;;;;;11.70;2.90;;;25.10;36.20;;;;;;6280080;27;80758;-65
2022/05/16 13:55:10;;;;;;;7.88;2.42;;;25.00;35.80;;;;;;6275589;27;80594;-65
2022/05/16 13:58:13;;;;;;;4.28;2.10;;;25.00;36.50;;;;;;6283833;27;80523;-65
2022/05/16 14:01:14;;;;;;;10.07;2.55;;;25.10;36.10;;;;;;6283435;27;80689;-64
2022/05/16 14:04:14;;;;;;;5.40;2.92;;;25.10;36.00;;;;;;6283630;27;80469;-64
2022/05/16 14:07:15;;;;;;;7.28;2.42;;;25.10;36.10;;;;;;6283117;27;80261;-65
2022/05/16 14:10:15;;;;;;;5.75;2.20;;;25.10;36.20;;;;;;6282898;27;81581;-65
2022/05/16 14:13:16;;;;;;;5.30;2.10;;;25.10;36.00;;;;;;6283727;27;80375;-65
2022/05/16 14:16:16;;;;;;;5.70;2.38;;;25.00;36.00;;;;;;6283440;27;80682;-65
2022/05/16 14:19:18;;;;;;;3.03;2.17;;;25.00;36.20;;;;;;6282998;27;80244;-65
2022/05/16 14:22:19;;;;;;;6.07;2.50;;;25.00;36.40;;;;;;6282129;27;80501;-64
2022/05/16 14:25:19;;;;;;;3.38;2.25;;;25.00;36.40;;;;;;6283198;27;80429;-65
2022/05/16 14:28:20;;;;;;;8.82;2.55;;;25.10;36.40;;;;;;6283156;27;81013;-66
2022/05/16 14:31:20;;;;;;;4.97;2.65;;;25.10;36.50;;;;;;6283665;27;80564;-66
2022/05/16 14:34:21;;;;;;;6.57;2.20;;;25.10;36.20;;;;;;6281989;27;82973;-64
2022/05/16 14:37:23;;;;;;;6.05;2.80;;;25.10;36.20;;;;;;6283153;27;80640;-65
2022/05/16 14:40:24;;;;;;;17.33;2.63;;;25.10;36.30;;;;;;6282383;27;80420;-71
2022/05/16 14:43:24;;;;;;;11.30;3.17;;;25.10;36.80;;;;;;6276154;27;80399;-70
2022/05/16 14:46:43;;;;;;;10.90;3.00;;;25.10;36.90;;;;;;6283374;27;80237;-72
2022/05/16 14:49:44;;;;;;;12.60;2.78;;;25.10;37.20;;;;;;6268583;27;80808;-66
2022/05/16 14:52:44;;;;;;;10.75;3.05;;;25.10;37.40;;;;;;6283916;27;80823;-66
2022/05/16 14:55:45;;;;;;;9.95;2.97;;;25.10;37.50;;;;;;6287387;27;80571;-66
2022/05/16 14:58:45;;;;;;;5.22;2.42;;;25.20;37.50;;;;;;6287045;27;82078;-70
2022/05/16 15:05:05;;;;;;;13.05;2.85;;;25.20;37.70;;;;;;6281349;27;80972;-66
2022/05/16 15:08:05;;;;;;;6.35;2.60;;;25.20;37.70;;;;;;6275992;27;81426;-66
2022/05/16 15:11:06;;;;;;;5.47;2.65;;;25.30;37.70;;;;;;6286895;27;80502;-68
2022/05/16 15:14:07;;;;;;;11.18;2.90;;;25.30;37.80;;;;;;6280859;27;80740;-67
2022/05/16 15:17:07;;;;;;;10.60;3.03;;;25.30;37.90;;;;;;6282427;27;81575;-66
2022/05/16 15:20:08;;;;;;;12.10;3.15;;;25.30;37.80;;;;;;6286504;27;80752;-66
2022/05/16 15:23:08;;;;;;;9.73;2.55;;;25.30;37.50;;;;;;6280796;27;80355;-67
2022/05/16 15:26:09;;;;;;;6.88;2.72;;;25.30;37.40;;;;;;6279794;27;80849;-67
2022/05/16 15:29:09;;;;;;;7.70;2.85;;;25.20;37.00;;;;;;6285770;27;81900;-67
2022/05/16 15:32:10;;;;;;;12.85;3.47;;;25.30;37.50;;;;;;6281481;27;80368;-69
2022/05/16 15:35:11;;;;;;;11.95;4.22;;;25.20;37.10;;;;;;6286193;27;80924;-67
2022/05/16 15:38:11;;;;;;;12.75;4.40;;;25.10;37.70;;;;;;6284165;27;83247;-68
2022/05/16 15:41:12;;;;;;;13.65;4.35;;;25.20;38.00;;;;;;6274251;27;81889;-68
2022/05/16 15:44:12;;;;;;;8.05;3.85;;;25.30;38.10;;;;;;6263439;27;82132;-67
2022/05/16 15:47:13;;;;;;;12.13;3.35;;;25.30;38.10;;;;;;6268656;27;80879;-67
2022/05/16 15:50:14;;;;;;;16.05;3.58;;;25.30;38.10;;;;;;6274774;27;80442;-68
2022/05/16 15:53:14;;;;;;;8.75;3.28;;;25.30;38.20;;;;;;6264711;27;80758;-68
2022/05/16 15:56:16;;;;;;;9.18;3.63;;;25.30;38.30;;;;;;6276807;27;80278;-69
2022/05/16 15:59:17;;;;;;;10.60;3.35;;;25.30;38.40;;;;;;6285189;27;80594;-68
2022/05/16 16:02:17;;;;;;;9.65;3.22;;;25.30;38.70;;;;;;6285554;27;80650;-68
2022/05/16 16:08:40;;;;;;;9.57;2.75;;;25.40;38.70;;;;;;6284793;27;85548;-69
2022/05/16 16:11:40;;;;;;;6.35;3.45;;;25.40;39.00;;;;;;6285276;27;80459;-68
2022/05/16 16:14:41;;;;;;;6.47;3.13;;;25.40;39.00;;;;;;6283383;27;80630;-68
2022/05/16 16:17:42;;;;;;;5.75;3.00;;;25.40;39.20;;;;;;6285083;27;80379;-69
2022/05/16 16:20:42;;;;;;;8.10;3.38;;;25.40;39.30;;;;;;6274268;27;80380;-67
2022/05/16 16:23:43;;;;;;;7.68;3.33;;;25.40;39.30;;;;;;6274634;27;81191;-73
2022/05/16 16:26:43;;;;;;;8.98;3.45;;;25.40;39.40;;;;;;6280427;27;80306;-68
2022/05/16 16:29:44;;;;;;;6.70;3.47;;;25.40;39.50;;;;;;6277706;27;82603;-68
2022/05/16 16:32:45;;;;;;;7.72;3.08;;;25.40;40.10;;;;;;6284330;27;81519;-69
2022/05/16 16:35:46;;;;;;;5.03;2.67;;;25.40;40.00;;;;;;6274999;27;81538;-68